Terminal Aerodrome Forecast
Issued by NWS Anchorage, AK

Home | Current Version | Previous Version | Text Only | Print | Product List | Glossary On
Versions: 1 2 3 4 5 6 7 8 9 10 11 12 13 14 15 16 17
000
FTAK31 PANC 222320
TAFANC
TAF
PANC 222320Z 2300/2406 30007KT P6SM FEW050
     FM230600 VRB05KT P6SM SKC
     FM232100 16012G25KT P6SM BKN200=

USA.gov is the U.S. government's official web portal to all federal, state and local government web resources and services.